sensor_id;sensor_type;location;lat;lon;timestamp;pressure;altitude;pressure_sealevel;temperature;humidity
34925;BME280;21130;51.728;8.748;2023-07-13T00:00:46;100200.06;;;15.44;100.00
34925;BME280;21130;51.728;8.748;2023-07-13T00:03:13;100206.53;;;15.34;100.00
34925;BME280;21130;51.728;8.748;2023-07-13T00:05:41;100213.84;;;15.30;100.00
34925;BME280;21130;51.728;8.748;2023-07-13T00:08:07;100222.50;;;15.24;100.00
34925;BME280;21130;51.728;8.748;2023-07-13T00:10:39;100222.25;;;15.20;100.00
34925;BME280;21130;51.728;8.748;2023-07-13T00:13:05;100225.03;;;15.20;100.00
34925;BME280;21130;51.728;8.748;2023-07-13T00:15:31;100230.06;;;15.18;100.00
34925;BME280;21130;51.728;8.748;2023-07-13T00:17:58;100225.31;;;15.19;100.00
34925;BME280;21130;51.728;8.748;2023-07-13T00:20:26;100227.84;;;15.20;100.00
34925;BME280;21130;51.728;8.748;2023-07-13T00:22:54;100231.72;;;15.24;100.00
34925;BME280;21130;51.728;8.748;2023-07-13T00:25:20;100233.97;;;15.22;100.00
34925;BME280;21130;51.728;8.748;2023-07-13T00:27:49;100234.53;;;15.19;100.00
34925;BME280;21130;51.728;8.748;2023-07-13T00:30:16;100233.16;;;15.17;100.00
34925;BME280;21130;51.728;8.748;2023-07-13T00:32:43;100230.34;;;15.11;100.00
34925;BME280;21130;51.728;8.748;2023-07-13T00:35:10;100228.41;;;15.07;100.00
34925;BME280;21130;51.728;8.748;2023-07-13T00:37:39;100227.88;;;15.05;100.00
34925;BME280;21130;51.728;8.748;2023-07-13T00:40:09;100223.69;;;15.02;100.00
34925;BME280;21130;51.728;8.748;2023-07-13T00:42:36;100227.56;;;15.01;100.00
34925;BME280;21130;51.728;8.748;2023-07-13T00:48:17;100235.13;;;15.01;100.00
34925;BME280;21130;51.728;8.748;2023-07-13T00:50:47;100220.59;;;14.99;100.00
34925;BME280;21130;51.728;8.748;2023-07-13T00:53:14;100231.22;;;14.97;100.00
34925;BME280;21130;51.728;8.748;2023-07-13T00:55:42;100217.53;;;15.00;100.00
34925;BME280;21130;51.728;8.748;2023-07-13T00:58:09;100223.41;;;14.94;100.00
34925;BME280;21130;51.728;8.748;2023-07-13T01:00:38;100218.63;;;14.94;100.00
34925;BME280;21130;51.728;8.748;2023-07-13T01:03:05;100221.75;;;14.87;100.00
34925;BME280;21130;51.728;8.748;2023-07-13T01:05:33;100216.69;;;14.84;100.00
34925;BME280;21130;51.728;8.748;2023-07-13T01:08:01;100220.34;;;14.85;100.00
34925;BME280;21130;51.728;8.748;2023-07-13T01:10:29;100212.78;;;14.85;100.00
34925;BME280;21130;51.728;8.748;2023-07-13T01:13:05;100221.19;;;14.85;100.00
34925;BME280;21130;51.728;8.748;2023-07-13T01:15:38;100221.44;;;14.79;100.00
34925;BME280;21130;51.728;8.748;2023-07-13T01:18:05;100217.25;;;14.81;100.00
34925;BME280;21130;51.728;8.748;2023-07-13T01:20:33;100216.69;;;14.79;100.00
34925;BME280;21130;51.728;8.748;2023-07-13T01:23:04;100215.28;;;14.82;100.00
34925;BME280;21130;51.728;8.748;2023-07-13T01:25:33;100220.63;;;14.83;100.00
34925;BME280;21130;51.728;8.748;2023-07-13T01:28:00;100220.59;;;14.88;100.00
34925;BME280;21130;51.728;8.748;2023-07-13T01:30:26;100229.25;;;15.07;100.00
34925;BME280;21130;51.728;8.748;2023-07-13T01:32:52;100226.72;;;15.16;100.00
34925;BME280;21130;51.728;8.748;2023-07-13T01:35:19;100227.81;;;15.30;100.00
34925;BME280;21130;51.728;8.748;2023-07-13T01:37:46;100223.84;;;15.47;100.00
34925;BME280;21130;51.728;8.748;2023-07-13T01:40:13;100224.94;;;15.56;100.00
34925;BME280;21130;51.728;8.748;2023-07-13T01:42:40;100231.06;;;15.68;100.00
34925;BME280;21130;51.728;8.748;2023-07-13T01:45:09;100230.78;;;15.75;100.00
34925;BME280;21130;51.728;8.748;2023-07-13T01:47:36;100235.50;;;15.80;100.00
34925;BME280;21130;51.728;8.748;2023-07-13T01:50:03;100236.31;;;15.90;100.00
34925;BME280;21130;51.728;8.748;2023-07-13T01:52:30;100237.44;;;15.84;100.00
34925;BME280;21130;51.728;8.748;2023-07-13T01:54:56;100236.06;;;15.82;100.00
34925;BME280;21130;51.728;8.748;2023-07-13T01:57:24;100238.03;;;15.81;100.00
34925;BME280;21130;51.728;8.748;2023-07-13T01:59:50;100236.38;;;15.75;100.00
34925;BME280;21130;51.728;8.748;2023-07-13T02:02:17;100233.03;;;15.68;100.00
34925;BME280;21130;51.728;8.748;2023-07-13T02:04:43;100236.66;;;15.63;100.00
34925;BME280;21130;51.728;8.748;2023-07-13T02:07:10;100234.19;;;15.51;100.00
34925;BME280;21130;51.728;8.748;2023-07-13T02:09:36;100231.66;;;15.45;100.00
34925;BME280;21130;51.728;8.748;2023-07-13T02:12:03;100237.28;;;15.40;100.00
34925;BME280;21130;51.728;8.748;2023-07-13T02:14:31;100235.06;;;15.37;100.00
34925;BME280;21130;51.728;8.748;2023-07-13T02:16:58;100243.44;;;15.37;100.00
34925;BME280;21130;51.728;8.748;2023-07-13T02:19:24;100243.78;;;15.25;100.00
34925;BME280;21130;51.728;8.748;2023-07-13T02:21:50;100245.72;;;15.24;100.00
34925;BME280;21130;51.728;8.748;2023-07-13T02:24:17;100249.66;;;15.18;100.00
34925;BME280;21130;51.728;8.748;2023-07-13T02:26:46;100243.50;;;15.11;100.00
34925;BME280;21130;51.728;8.748;2023-07-13T02:29:13;100243.25;;;15.07;100.00
34925;BME280;21130;51.728;8.748;2023-07-13T02:31:41;100244.34;;;15.01;100.00
34925;BME280;21130;51.728;8.748;2023-07-13T02:34:08;100237.63;;;14.97;100.00
34925;BME280;21130;51.728;8.748;2023-07-13T02:36:34;100238.50;;;14.93;100.00
34925;BME280;21130;51.728;8.748;2023-07-13T02:39:03;100245.19;;;14.91;100.00
34925;BME280;21130;51.728;8.748;2023-07-13T02:41:30;100240.44;;;14.77;100.00
34925;BME280;21130;51.728;8.748;2023-07-13T02:43:57;100232.63;;;14.68;100.00
34925;BME280;21130;51.728;8.748;2023-07-13T02:46:28;100235.16;;;14.60;100.00
34925;BME280;21130;51.728;8.748;2023-07-13T02:48:56;100237.06;;;14.54;100.00
34925;BME280;21130;51.728;8.748;2023-07-13T02:51:23;100239.84;;;14.49;100.00
34925;BME280;21130;51.728;8.748;2023-07-13T02:53:50;100233.41;;;14.38;100.00
34925;BME280;21130;51.728;8.748;2023-07-13T02:56:16;100242.91;;;14.37;100.00
34925;BME280;21130;51.728;8.748;2023-07-13T02:58:43;100242.34;;;14.30;100.00
34925;BME280;21130;51.728;8.748;2023-07-13T03:01:11;100245.13;;;14.35;100.00
34925;BME280;21130;51.728;8.748;2023-07-13T03:03:37;100240.94;;;14.33;100.00
34925;BME280;21130;51.728;8.748;2023-07-13T03:06:06;100238.41;;;14.26;100.00
34925;BME280;21130;51.728;8.748;2023-07-13T03:08:33;100247.03;;;14.19;100.00
34925;BME280;21130;51.728;8.748;2023-07-13T03:11:00;100248.97;;;14.14;100.00
34925;BME280;21130;51.728;8.748;2023-07-13T03:13:28;100252.31;;;14.11;100.00
34925;BME280;21130;51.728;8.748;2023-07-13T03:15:55;100256.22;;;13.99;100.00
34925;BME280;21130;51.728;8.748;2023-07-13T03:18:21;100259.28;;;13.98;100.00
34925;BME280;21130;51.728;8.748;2023-07-13T03:20:50;100254.25;;;13.95;100.00
34925;BME280;21130;51.728;8.748;2023-07-13T03:23:18;100260.66;;;13.95;100.00
34925;BME280;21130;51.728;8.748;2023-07-13T03:25:45;100259.81;;;13.95;100.00
34925;BME280;21130;51.728;8.748;2023-07-13T03:28:11;100257.03;;;13.95;100.00
34925;BME280;21130;51.728;8.748;2023-07-13T03:30:38;100262.31;;;13.96;100.00
34925;BME280;21130;51.728;8.748;2023-07-13T03:33:05;100270.19;;;14.04;100.00
34925;BME280;21130;51.728;8.748;2023-07-13T03:35:31;100264.59;;;14.04;100.00
34925;BME280;21130;51.728;8.748;2023-07-13T03:37:58;100271.59;;;14.07;100.00
34925;BME280;21130;51.728;8.748;2023-07-13T03:40:27;100263.47;;;14.05;100.00
34925;BME280;21130;51.728;8.748;2023-07-13T03:42:54;100273.50;;;14.01;100.00
34925;BME280;21130;51.728;8.748;2023-07-13T03:45:20;100277.69;;;14.04;100.00
34925;BME280;21130;51.728;8.748;2023-07-13T03:47:47;100277.44;;;14.11;100.00
34925;BME280;21130;51.728;8.748;2023-07-13T03:50:13;100281.91;;;14.17;100.00
34925;BME280;21130;51.728;8.748;2023-07-13T03:52:40;100280.25;;;14.21;100.00
34925;BME280;21130;51.728;8.748;2023-07-13T03:55:07;100281.38;;;14.20;100.00
34925;BME280;21130;51.728;8.748;2023-07-13T03:57:35;100286.97;;;14.20;100.00
34925;BME280;21130;51.728;8.748;2023-07-13T04:00:02;100286.66;;;14.16;100.00
34925;BME280;21130;51.728;8.748;2023-07-13T04:02:29;100296.41;;;14.09;100.00
34925;BME280;21130;51.728;8.748;2023-07-13T04:04:55;100294.19;;;14.11;100.00
34925;BME280;21130;51.728;8.748;2023-07-13T04:07:22;100290.81;;;14.09;100.00
34925;BME280;21130;51.728;8.748;2023-07-13T04:09:48;100290.56;;;14.10;100.00
34925;BME280;21130;51.728;8.748;2023-07-13T04:12:14;100297.81;;;14.11;100.00
34925;BME280;21130;51.728;8.748;2023-07-13T04:14:42;100304.25;;;14.17;100.00
34925;BME280;21130;51.728;8.748;2023-07-13T04:17:09;100307.88;;;14.12;100.00
34925;BME280;21130;51.728;8.748;2023-07-13T04:19:35;100302.81;;;14.09;100.00
34925;BME280;21130;51.728;8.748;2023-07-13T04:22:02;100307.03;;;14.12;100.00
34925;BME280;21130;51.728;8.748;2023-07-13T04:24:28;100305.63;;;14.14;100.00
34925;BME280;21130;51.728;8.748;2023-07-13T04:26:55;100305.34;;;14.11;100.00
34925;BME280;21130;51.728;8.748;2023-07-13T04:29:24;100304.25;;;14.22;100.00
34925;BME280;21130;51.728;8.748;2023-07-13T04:31:52;100305.38;;;14.21;100.00
34925;BME280;21130;51.728;8.748;2023-07-13T04:34:19;100309.34;;;14.35;100.00
34925;BME280;21130;51.728;8.748;2023-07-13T04:36:45;100302.66;;;14.41;100.00
34925;BME280;21130;51.728;8.748;2023-07-13T04:39:12;100307.66;;;14.39;100.00
34925;BME280;21130;51.728;8.748;2023-07-13T04:41:38;100308.81;;;14.48;100.00
34925;BME280;21130;51.728;8.748;2023-07-13T04:44:04;100300.78;;;14.57;100.00
34925;BME280;21130;51.728;8.748;2023-07-13T04:46:31;100302.19;;;14.70;100.00
34925;BME280;21130;51.728;8.748;2023-07-13T04:49:16;100304.16;;;14.75;100.00
34925;BME280;21130;51.728;8.748;2023-07-13T04:51:43;100308.06;;;14.84;100.00
34925;BME280;21130;51.728;8.748;2023-07-13T04:54:10;100306.13;;;15.00;100.00
34925;BME280;21130;51.728;8.748;2023-07-13T04:56:36;100307.22;;;15.04;100.00
34925;BME280;21130;51.728;8.748;2023-07-13T04:59:03;100314.78;;;15.19;100.00
34925;BME280;21130;51.728;8.748;2023-07-13T05:01:29;100308.59;;;15.27;100.00
34925;BME280;21130;51.728;8.748;2023-07-13T05:03:56;100312.25;;;15.38;100.00
34925;BME280;21130;51.728;8.748;2023-07-13T05:06:26;100311.69;;;15.46;100.00
34925;BME280;21130;51.728;8.748;2023-07-13T05:08:52;100313.31;;;15.52;100.00
34925;BME280;21130;51.728;8.748;2023-07-13T05:11:18;100319.75;;;15.63;100.00
34925;BME280;21130;51.728;8.748;2023-07-13T05:13:45;100317.78;;;15.63;100.00
34925;BME280;21130;51.728;8.748;2023-07-13T05:16:11;100321.69;;;15.67;100.00
34925;BME280;21130;51.728;8.748;2023-07-13T05:18:38;100318.63;;;15.79;100.00
34925;BME280;21130;51.728;8.748;2023-07-13T05:21:06;100323.34;;;15.89;100.00
34925;BME280;21130;51.728;8.748;2023-07-13T05:23:35;100331.16;;;15.97;100.00
34925;BME280;21130;51.728;8.748;2023-07-13T05:26:03;100325.50;;;16.07;100.00
34925;BME280;21130;51.728;8.748;2023-07-13T05:28:30;100324.38;;;16.13;100.00
34925;BME280;21130;51.728;8.748;2023-07-13T05:30:58;100328.81;;;16.19;100.00
34925;BME280;21130;51.728;8.748;2023-07-13T05:33:25;100331.03;;;16.28;100.00
34925;BME280;21130;51.728;8.748;2023-07-13T05:35:52;100334.94;;;16.32;100.00
34925;BME280;21130;51.728;8.748;2023-07-13T05:38:19;100332.66;;;16.39;100.00
34925;BME280;21130;51.728;8.748;2023-07-13T05:40:48;100328.69;;;16.45;100.00
34925;BME280;21130;51.728;8.748;2023-07-13T05:43:14;100336.72;;;16.62;100.00
34925;BME280;21130;51.728;8.748;2023-07-13T05:45:41;100332.19;;;16.71;100.00
34925;BME280;21130;51.728;8.748;2023-07-13T05:48:08;100331.06;;;16.72;100.00
34925;BME280;21130;51.728;8.748;2023-07-13T05:50:35;100340.56;;;16.76;100.00
34925;BME280;21130;51.728;8.748;2023-07-13T05:53:01;100329.63;;;16.75;100.00
34925;BME280;21130;51.728;8.748;2023-07-13T05:55:28;100336.38;;;16.79;100.00
34925;BME280;21130;51.728;8.748;2023-07-13T05:57:57;100334.72;;;16.78;100.00
34925;BME280;21130;51.728;8.748;2023-07-13T06:00:24;100342.25;;;16.72;100.00
34925;BME280;21130;51.728;8.748;2023-07-13T06:02:51;100341.25;;;16.58;100.00
34925;BME280;21130;51.728;8.748;2023-07-13T06:05:18;100340.22;;;16.38;100.00
34925;BME280;21130;51.728;8.748;2023-07-13T06:07:45;100351.72;;;16.32;100.00
34925;BME280;21130;51.728;8.748;2023-07-13T06:10:11;100350.66;;;16.23;100.00
34925;BME280;21130;51.728;8.748;2023-07-13T06:12:38;100360.47;;;16.15;100.00
34925;BME280;21130;51.728;8.748;2023-07-13T06:15:07;100359.63;;;16.14;100.00
34925;BME280;21130;51.728;8.748;2023-07-13T06:17:34;100363.59;;;16.08;100.00
34925;BME280;21130;51.728;8.748;2023-07-13T06:20:01;100352.97;;;16.10;100.00
34925;BME280;21130;51.728;8.748;2023-07-13T06:22:28;100358.25;;;16.12;100.00
34925;BME280;21130;51.728;8.748;2023-07-13T06:24:54;100351.00;;;16.11;100.00
34925;BME280;21130;51.728;8.748;2023-07-13T06:27:21;100354.03;;;16.19;100.00
34925;BME280;21130;51.728;8.748;2023-07-13T06:29:48;100354.22;;;16.38;100.00
34925;BME280;21130;51.728;8.748;2023-07-13T06:32:16;100357.25;;;16.47;100.00
34925;BME280;21130;51.728;8.748;2023-07-13T06:34:43;100365.09;;;16.50;100.00
34925;BME280;21130;51.728;8.748;2023-07-13T06:37:10;100366.69;;;16.67;100.00
34925;BME280;21130;51.728;8.748;2023-07-13T06:39:36;100365.03;;;16.66;100.00
34925;BME280;21130;51.728;8.748;2023-07-13T06:42:03;100361.50;;;16.94;100.00
34925;BME280;21130;51.728;8.748;2023-07-13T06:44:30;100374.53;;;17.14;100.00
34925;BME280;21130;51.728;8.748;2023-07-13T06:46:56;100369.16;;;17.18;100.00
34925;BME280;21130;51.728;8.748;2023-07-13T06:49:24;100372.56;;;17.15;100.00
34925;BME280;21130;51.728;8.748;2023-07-13T06:51:51;100365.19;;;17.24;100.00
34925;BME280;21130;51.728;8.748;2023-07-13T06:54:17;100368.00;;;17.24;100.00
34925;BME280;21130;51.728;8.748;2023-07-13T06:56:44;100371.56;;;17.35;100.00
34925;BME280;21130;51.728;8.748;2023-07-13T06:59:10;100376.25;;;17.44;100.00
34925;BME280;21130;51.728;8.748;2023-07-13T07:01:37;100377.56;;;17.52;100.00
34925;BME280;21130;51.728;8.748;2023-07-13T07:04:04;100376.09;;;17.60;100.00
34925;BME280;21130;51.728;8.748;2023-07-13T07:06:32;100373.59;;;17.87;100.00
34925;BME280;21130;51.728;8.748;2023-07-13T07:08:58;100378.47;;;18.06;100.00
34925;BME280;21130;51.728;8.748;2023-07-13T07:11:25;100375.06;;;18.09;100.00
34925;BME280;21130;51.728;8.748;2023-07-13T07:13:52;100373.50;;;18.22;100.00
34925;BME280;21130;51.728;8.748;2023-07-13T07:16:20;100363.59;;;18.29;100.00
34925;BME280;21130;51.728;8.748;2023-07-13T07:18:48;100361.81;;;18.57;100.00
34925;BME280;21130;51.728;8.748;2023-07-13T07:21:14;100373.88;;;18.39;100.00
34925;BME280;21130;51.728;8.748;2023-07-13T07:23:42;100372.63;;;18.26;100.00
34925;BME280;21130;51.728;8.748;2023-07-13T07:26:09;100376.41;;;18.35;100.00
34925;BME280;21130;51.728;8.748;2023-07-13T07:28:37;100379.56;;;18.34;100.00
34925;BME280;21130;51.728;8.748;2023-07-13T07:31:03;100371.34;;;18.38;100.00
34925;BME280;21130;51.728;8.748;2023-07-13T07:33:32;100369.44;;;18.33;100.00
34925;BME280;21130;51.728;8.748;2023-07-13T07:35:58;100371.94;;;18.34;100.00
34925;BME280;21130;51.728;8.748;2023-07-13T07:38:25;100377.69;;;18.24;100.00
34925;BME280;21130;51.728;8.748;2023-07-13T07:40:53;100375.97;;;18.28;100.00
34925;BME280;21130;51.728;8.748;2023-07-13T07:43:19;100375.53;;;18.40;100.00
34925;BME280;21130;51.728;8.748;2023-07-13T07:45:46;100373.09;;;18.33;100.00
34925;BME280;21130;51.728;8.748;2023-07-13T07:48:12;100378.44;;;18.54;100.00
34925;BME280;21130;51.728;8.748;2023-07-13T07:50:39;100387.09;;;18.82;100.00
34925;BME280;21130;51.728;8.748;2023-07-13T07:53:07;100396.47;;;18.72;100.00
34925;BME280;21130;51.728;8.748;2023-07-13T07:55:35;100394.28;;;18.69;100.00
34925;BME280;21130;51.728;8.748;2023-07-13T07:58:04;100394.22;;;18.93;100.00
34925;BME280;21130;51.728;8.748;2023-07-13T08:00:31;100387.94;;;18.82;100.00
34925;BME280;21130;51.728;8.748;2023-07-13T08:02:57;100389.44;;;18.93;100.00
34925;BME280;21130;51.728;8.748;2023-07-13T08:05:24;100392.19;;;18.98;100.00
34925;BME280;21130;51.728;8.748;2023-07-13T08:07:51;100399.56;;;19.46;100.00
34925;BME280;21130;51.728;8.748;2023-07-13T08:10:18;100392.13;;;19.55;100.00
34925;BME280;21130;51.728;8.748;2023-07-13T08:12:44;100393.47;;;19.77;100.00
34925;BME280;21130;51.728;8.748;2023-07-13T08:15:13;100394.31;;;19.58;100.00
34925;BME280;21130;51.728;8.748;2023-07-13T08:17:40;100404.88;;;19.34;100.00
34925;BME280;21130;51.728;8.748;2023-07-13T08:20:07;100395.28;;;19.35;100.00
34925;BME280;21130;51.728;8.748;2023-07-13T08:22:34;100399.84;;;19.31;100.00
34925;BME280;21130;51.728;8.748;2023-07-13T08:25:01;100406.53;;;19.35;100.00
34925;BME280;21130;51.728;8.748;2023-07-13T08:27:29;100400.16;;;19.10;100.00
34925;BME280;21130;51.728;8.748;2023-07-13T08:29:55;100391.47;;;19.26;100.00
34925;BME280;21130;51.728;8.748;2023-07-13T08:32:23;100399.13;;;19.06;100.00
34925;BME280;21130;51.728;8.748;2023-07-13T08:34:50;100407.91;;;19.18;100.00
34925;BME280;21130;51.728;8.748;2023-07-13T08:37:17;100406.97;;;19.42;100.00
34925;BME280;21130;51.728;8.748;2023-07-13T08:39:44;100405.75;;;19.48;100.00
34925;BME280;21130;51.728;8.748;2023-07-13T08:42:14;100398.66;;;19.51;100.00
34925;BME280;21130;51.728;8.748;2023-07-13T08:44:51;100397.34;;;19.62;100.00
34925;BME280;21130;51.728;8.748;2023-07-13T08:47:21;100403.16;;;19.52;100.00
34925;BME280;21130;51.728;8.748;2023-07-13T08:49:50;100399.50;;;19.70;100.00
34925;BME280;21130;51.728;8.748;2023-07-13T08:52:26;100398.28;;;19.90;100.00
34925;BME280;21130;51.728;8.748;2023-07-13T08:55:04;100395.03;;;19.69;100.00
34925;BME280;21130;51.728;8.748;2023-07-13T08:57:33;100399.97;;;20.19;100.00
34925;BME280;21130;51.728;8.748;2023-07-13T09:00:01;100387.03;;;20.45;100.00
34925;BME280;21130;51.728;8.748;2023-07-13T09:02:40;100391.75;;;20.78;100.00
34925;BME280;21130;51.728;8.748;2023-07-13T09:05:12;100401.00;;;21.28;100.00
34925;BME280;21130;51.728;8.748;2023-07-13T09:07:54;100381.38;;;21.68;98.77
34925;BME280;21130;51.728;8.748;2023-07-13T09:10:27;100377.78;;;21.76;95.78
34925;BME280;21130;51.728;8.748;2023-07-13T09:13:05;100389.25;;;22.11;94.87
34925;BME280;21130;51.728;8.748;2023-07-13T09:15:36;100393.59;;;22.49;91.70
34925;BME280;21130;51.728;8.748;2023-07-13T09:18:08;100392.81;;;22.65;86.07
34925;BME280;21130;51.728;8.748;2023-07-13T09:20:42;100390.66;;;22.71;84.75
34925;BME280;21130;51.728;8.748;2023-07-13T09:23:14;100380.97;;;22.15;92.14
34925;BME280;21130;51.728;8.748;2023-07-13T09:25:45;100388.59;;;22.14;89.25
34925;BME280;21130;51.728;8.748;2023-07-13T09:28:16;100382.66;;;22.56;91.70
34925;BME280;21130;51.728;8.748;2023-07-13T09:30:49;100381.91;;;22.33;86.70
34925;BME280;21130;51.728;8.748;2023-07-13T09:33:18;100382.44;;;21.50;92.14
34925;BME280;21130;51.728;8.748;2023-07-13T09:35:46;100397.38;;;21.50;96.62
34925;BME280;21130;51.728;8.748;2023-07-13T09:38:13;100381.25;;;21.73;93.10
34925;BME280;21130;51.728;8.748;2023-07-13T09:40:46;100391.00;;;21.90;97.46
34925;BME280;21130;51.728;8.748;2023-07-13T09:43:16;100398.09;;;22.10;94.91
34925;BME280;21130;51.728;8.748;2023-07-13T09:45:45;100396.19;;;22.28;88.23
34925;BME280;21130;51.728;8.748;2023-07-13T09:48:14;100390.91;;;22.35;90.41
34925;BME280;21130;51.728;8.748;2023-07-13T09:50:55;100390.59;;;23.02;80.90
34925;BME280;21130;51.728;8.748;2023-07-13T09:53:23;100390.38;;;23.68;76.39
34925;BME280;21130;51.728;8.748;2023-07-13T09:55:49;100386.16;;;24.01;76.00
34925;BME280;21130;51.728;8.748;2023-07-13T09:58:17;100382.56;;;24.89;64.63
34925;BME280;21130;51.728;8.748;2023-07-13T10:00:55;100387.16;;;24.43;61.15
34925;BME280;21130;51.728;8.748;2023-07-13T10:03:25;100387.56;;;24.33;64.08
34925;BME280;21130;51.728;8.748;2023-07-13T10:05:53;100386.84;;;24.74;59.96
34925;BME280;21130;51.728;8.748;2023-07-13T10:08:26;100390.16;;;24.76;62.57
34925;BME280;21130;51.728;8.748;2023-07-13T10:10:58;100394.72;;;25.19;60.88
34925;BME280;21130;51.728;8.748;2023-07-13T10:13:28;100389.19;;;24.72;60.22
34925;BME280;21130;51.728;8.748;2023-07-13T10:15:55;100399.81;;;24.84;59.79
34925;BME280;21130;51.728;8.748;2023-07-13T10:18:23;100389.16;;;24.81;58.69
34925;BME280;21130;51.728;8.748;2023-07-13T10:20:54;100380.25;;;25.33;59.17
34925;BME280;21130;51.728;8.748;2023-07-13T10:23:32;100384.94;;;25.08;59.90
34925;BME280;21130;51.728;8.748;2023-07-13T10:26:00;100395.31;;;25.04;59.10
34925;BME280;21130;51.728;8.748;2023-07-13T10:28:30;100393.31;;;25.05;57.88
34925;BME280;21130;51.728;8.748;2023-07-13T10:30:59;100394.13;;;24.84;56.65
34925;BME280;21130;51.728;8.748;2023-07-13T10:33:26;100396.84;;;24.51;58.06
34925;BME280;21130;51.728;8.748;2023-07-13T10:35:57;100395.69;;;23.87;63.96
34925;BME280;21130;51.728;8.748;2023-07-13T10:38:29;100393.28;;;23.25;68.76
34925;BME280;21130;51.728;8.748;2023-07-13T10:40:58;100402.66;;;22.77;78.31
34925;BME280;21130;51.728;8.748;2023-07-13T10:43:30;100408.78;;;22.61;80.40
34925;BME280;21130;51.728;8.748;2023-07-13T10:45:59;100402.84;;;22.32;83.14
34925;BME280;21130;51.728;8.748;2023-07-13T10:48:27;100405.69;;;22.00;89.06
34925;BME280;21130;51.728;8.748;2023-07-13T10:50:55;100405.16;;;21.45;92.42
34925;BME280;21130;51.728;8.748;2023-07-13T10:53:30;100415.28;;;21.68;91.87
34925;BME280;21130;51.728;8.748;2023-07-13T10:56:01;100410.50;;;22.00;88.04
34925;BME280;21130;51.728;8.748;2023-07-13T10:58:35;100420.09;;;21.68;92.37
34925;BME280;21130;51.728;8.748;2023-07-13T11:01:07;100414.75;;;21.89;88.25
34925;BME280;21130;51.728;8.748;2023-07-13T11:03:36;100409.59;;;21.91;89.82
34925;BME280;21130;51.728;8.748;2023-07-13T11:06:08;100405.56;;;22.14;85.50
34925;BME280;21130;51.728;8.748;2023-07-13T11:08:38;100413.31;;;22.00;84.20
34925;BME280;21130;51.728;8.748;2023-07-13T11:11:34;100405.84;;;21.73;86.63
34925;BME280;21130;51.728;8.748;2023-07-13T11:14:02;100409.91;;;21.58;88.38
34925;BME280;21130;51.728;8.748;2023-07-13T11:16:42;100411.69;;;21.54;92.31
34925;BME280;21130;51.728;8.748;2023-07-13T11:22:23;100417.09;;;20.91;96.83
34925;BME280;21130;51.728;8.748;2023-07-13T11:25:00;100400.66;;;21.07;96.60
34925;BME280;21130;51.728;8.748;2023-07-13T11:27:40;100402.03;;;21.32;96.97
34925;BME280;21130;51.728;8.748;2023-07-13T11:30:32;100400.31;;;22.21;91.54
34925;BME280;21130;51.728;8.748;2023-07-13T11:33:14;100390.41;;;22.33;83.50
34925;BME280;21130;51.728;8.748;2023-07-13T11:35:45;100390.66;;;22.62;75.65
34925;BME280;21130;51.728;8.748;2023-07-13T11:38:16;100399.06;;;23.11;75.04
34925;BME280;21130;51.728;8.748;2023-07-13T11:40:47;100399.72;;;23.51;74.48
34925;BME280;21130;51.728;8.748;2023-07-13T11:43:15;100392.41;;;23.68;69.01
34925;BME280;21130;51.728;8.748;2023-07-13T11:45:42;100393.75;;;24.26;66.51
34925;BME280;21130;51.728;8.748;2023-07-13T11:48:19;100382.19;;;24.70;64.60
34925;BME280;21130;51.728;8.748;2023-07-13T11:50:51;100389.84;;;24.48;61.60
34925;BME280;21130;51.728;8.748;2023-07-13T11:53:19;100397.75;;;24.25;62.62
34925;BME280;21130;51.728;8.748;2023-07-13T11:55:47;100396.91;;;22.99;65.94
34925;BME280;21130;51.728;8.748;2023-07-13T11:58:18;100392.91;;;23.00;70.19
34925;BME280;21130;51.728;8.748;2023-07-13T12:00:47;100395.66;;;22.65;69.61
34925;BME280;21130;51.728;8.748;2023-07-13T12:03:18;100389.16;;;22.74;72.90
34925;BME280;21130;51.728;8.748;2023-07-13T12:05:55;100396.16;;;22.68;73.17
34925;BME280;21130;51.728;8.748;2023-07-13T12:08:23;100386.09;;;23.27;73.53
34925;BME280;21130;51.728;8.748;2023-07-13T12:11:03;100377.94;;;23.26;70.21
34925;BME280;21130;51.728;8.748;2023-07-13T12:13:35;100387.25;;;23.35;68.01
34925;BME280;21130;51.728;8.748;2023-07-13T12:16:10;100389.72;;;23.54;65.06
34925;BME280;21130;51.728;8.748;2023-07-13T12:18:56;100395.59;;;23.75;65.62
34925;BME280;21130;51.728;8.748;2023-07-13T12:21:29;100391.25;;;23.51;65.50
34925;BME280;21130;51.728;8.748;2023-07-13T12:29:15;100381.09;;;23.07;66.71
34925;BME280;21130;51.728;8.748;2023-07-13T12:31:44;100391.94;;;23.05;64.09
34925;BME280;21130;51.728;8.748;2023-07-13T12:34:16;100392.34;;;22.90;63.48
34925;BME280;21130;51.728;8.748;2023-07-13T12:36:47;100392.78;;;22.57;64.11
34925;BME280;21130;51.728;8.748;2023-07-13T12:39:17;100404.56;;;22.41;69.49
34925;BME280;21130;51.728;8.748;2023-07-13T12:41:45;100402.44;;;22.16;64.89
34925;BME280;21130;51.728;8.748;2023-07-13T12:44:14;100400.44;;;22.16;67.29
34925;BME280;21130;51.728;8.748;2023-07-13T12:46:52;100403.28;;;22.56;66.78
34925;BME280;21130;51.728;8.748;2023-07-13T12:49:23;100408.34;;;22.85;66.13
34925;BME280;21130;51.728;8.748;2023-07-13T12:51:50;100403.19;;;22.96;67.98
34925;BME280;21130;51.728;8.748;2023-07-13T12:54:21;100404.47;;;24.12;66.68
34925;BME280;21130;51.728;8.748;2023-07-13T12:56:49;100398.00;;;24.50;64.00
34925;BME280;21130;51.728;8.748;2023-07-13T12:59:20;100409.09;;;24.25;60.72
34925;BME280;21130;51.728;8.748;2023-07-13T13:01:48;100406.53;;;23.94;57.85